Ausonia, Argentina
Current Conditions -  °F | °C
As of 1:00 PM on Friday 31 Oct 2014 (Local Time) from SAOC Reporting Station
Scattered Clouds Scattered Clouds  
Wind Chill: 55°   Ceiling: Unl
Heat Index: 55°   Visibility: 6mi
Dew Point: 43°   Wind: 14mph
Humidity: 63%   Direction: 180°S
Pressure: 30"   Gusts: NA
Location:  32.35°S, 63.22°W
Report Text: SAOC 311600Z 18012KT 9999 SCT020 SCT10013/06 Q1016
Loading
Personal Weather Stations






























Interactive Weather Map New forecast layout! Learn more

10-Day Weather Forecast

Advertisements
Track Severe Weather on mobile